createdAt,value
2017-07-08T00:01:29.317Z,19.69
2017-07-08T00:04:01.763Z,19.65
2017-07-08T00:06:34.077Z,19.65
2017-07-08T00:09:06.475Z,19.58
2017-07-08T00:11:38.886Z,19.53
2017-07-08T00:14:11.229Z,19.50
2017-07-08T00:16:43.620Z,19.50
2017-07-08T00:19:16.019Z,19.51
2017-07-08T00:21:49.204Z,19.51
2017-07-08T00:24:22.086Z,19.42
2017-07-08T00:26:54.242Z,19.42
2017-07-08T00:29:26.580Z,19.32
2017-07-08T00:31:59.070Z,19.29
2017-07-08T00:34:31.519Z,19.30
2017-07-08T00:37:03.821Z,19.32
2017-07-08T00:39:36.274Z,19.33
2017-07-08T00:42:08.757Z,19.38
2017-07-08T00:44:41.033Z,19.46
2017-07-08T00:47:13.400Z,19.49
2017-07-08T00:49:45.913Z,19.48
2017-07-08T00:52:18.435Z,19.53
2017-07-08T00:54:51.283Z,19.53
2017-07-08T00:57:24.263Z,19.52
2017-07-08T00:59:56.633Z,19.46
2017-07-08T01:02:29.021Z,19.46
2017-07-08T01:05:01.485Z,19.42
2017-07-08T01:07:33.873Z,19.41
2017-07-08T01:10:06.212Z,19.40
2017-07-08T01:12:38.741Z,19.34
2017-07-08T01:15:11.054Z,19.27
2017-07-08T01:17:43.563Z,19.21
2017-07-08T01:20:15.817Z,19.17
2017-07-08T01:22:48.220Z,19.13
2017-07-08T01:25:20.666Z,19.07
2017-07-08T01:27:53.048Z,19.01
2017-07-08T01:30:25.550Z,18.98
2017-07-08T01:32:58.228Z,18.96
2017-07-08T01:35:31.364Z,18.95
2017-07-08T01:38:04.090Z,18.95
2017-07-08T01:40:36.651Z,18.96
2017-07-08T01:43:09.956Z,18.92
2017-07-08T01:45:42.644Z,18.90
2017-07-08T01:48:14.807Z,18.89
2017-07-08T01:50:47.253Z,18.83
2017-07-08T01:53:19.654Z,18.82
2017-07-08T01:55:59.158Z,18.82
2017-07-08T01:58:31.572Z,18.80
2017-07-08T02:01:03.976Z,18.80
2017-07-08T02:03:36.447Z,18.80
2017-07-08T02:06:08.849Z,18.80
2017-07-08T02:08:41.251Z,18.78
2017-07-08T02:11:13.624Z,18.74
2017-07-08T02:13:45.997Z,18.72
2017-07-08T02:16:18.329Z,18.66
2017-07-08T02:18:50.841Z,18.64
2017-07-08T02:21:24.570Z,18.58
2017-07-08T02:23:57.720Z,18.54
2017-07-08T02:26:30.065Z,18.46
2017-07-08T02:29:02.479Z,18.40
2017-07-08T02:31:34.846Z,18.37
2017-07-08T02:34:07.359Z,18.33
2017-07-08T02:36:39.644Z,18.32
2017-07-08T02:39:12.080Z,18.33
2017-07-08T02:41:44.472Z,18.35
2017-07-08T02:44:16.834Z,18.38
2017-07-08T02:46:49.209Z,18.42
2017-07-08T02:49:21.706Z,18.46
2017-07-08T02:51:54.198Z,18.51
2017-07-08T02:54:26.490Z,18.63
2017-07-08T02:56:58.990Z,18.67
2017-07-08T02:59:31.244Z,18.72
2017-07-08T03:02:03.733Z,18.77
2017-07-08T03:04:36.352Z,18.81
2017-07-08T03:07:09.327Z,18.84
2017-07-08T03:09:41.877Z,18.80
2017-07-08T03:12:14.369Z,18.78
2017-07-08T03:14:47.085Z,18.77
2017-07-08T03:17:19.448Z,18.78
2017-07-08T03:19:51.503Z,18.72
2017-07-08T03:22:23.952Z,18.69
2017-07-08T03:24:56.455Z,18.69
2017-07-08T03:27:28.944Z,18.73
2017-07-08T03:30:01.244Z,18.73
2017-07-08T03:32:33.533Z,18.75
2017-07-08T03:35:06.262Z,18.80
2017-07-08T03:37:38.362Z,18.81
2017-07-08T03:40:10.882Z,18.85
2017-07-08T03:42:44.227Z,18.90
2017-07-08T03:45:17.453Z,18.94
2017-07-08T03:47:49.388Z,19.02
2017-07-08T03:50:21.862Z,19.03
2017-07-08T03:52:54.200Z,19.05
2017-07-08T03:55:26.434Z,19.05
2017-07-08T03:57:58.854Z,19.07
2017-07-08T04:00:31.373Z,19.11
2017-07-08T04:03:03.693Z,19.12
2017-07-08T04:05:36.129Z,19.16
2017-07-08T04:08:08.516Z,19.21
2017-07-08T04:10:40.946Z,19.25
2017-07-08T04:13:13.413Z,19.18
2017-07-08T04:15:45.884Z,19.21
2017-07-08T04:18:18.133Z,19.12
2017-07-08T04:20:50.518Z,19.19
2017-07-08T04:23:24.018Z,19.24
2017-07-08T04:25:56.603Z,19.29
2017-07-08T04:28:28.769Z,19.32
2017-07-08T04:31:01.201Z,19.30
2017-07-08T04:33:33.579Z,19.26
2017-07-08T04:36:05.810Z,19.32
2017-07-08T04:38:39.563Z,19.26
2017-07-08T04:41:11.761Z,19.27
2017-07-08T04:43:44.343Z,19.29
2017-07-08T04:46:16.591Z,19.35
2017-07-08T04:48:49.040Z,19.38
2017-07-08T04:51:21.820Z,19.38
2017-07-08T04:53:53.886Z,19.39
2017-07-08T04:56:26.241Z,19.37
2017-07-08T04:58:58.614Z,19.31
2017-07-08T05:01:30.879Z,19.31
2017-07-08T05:04:03.112Z,19.36
2017-07-08T05:06:36.501Z,19.32
2017-07-08T05:09:08.844Z,19.32
2017-07-08T05:11:41.284Z,19.45
2017-07-08T05:14:13.649Z,19.50
2017-07-08T05:16:46.084Z,19.46
2017-07-08T05:19:18.402Z,19.53
2017-07-08T05:21:50.892Z,19.45
2017-07-08T05:24:23.282Z,19.44
2017-07-08T05:26:55.919Z,19.56
2017-07-08T05:29:28.154Z,19.53
2017-07-08T05:32:00.585Z,19.52
2017-07-08T05:34:32.873Z,19.57
2017-07-08T05:37:05.376Z,19.63
2017-07-08T05:39:37.666Z,19.64
2017-07-08T05:42:10.108Z,19.58
2017-07-08T05:44:42.470Z,19.62
2017-07-08T05:47:14.907Z,19.53
2017-07-08T05:49:47.262Z,19.57
2017-07-08T05:52:19.837Z,19.66
2017-07-08T05:54:52.120Z,19.70
2017-07-08T05:57:24.531Z,19.65
2017-07-08T05:59:56.798Z,19.62
2017-07-08T06:02:29.318Z,19.64
2017-07-08T06:05:02.763Z,19.75
2017-07-08T06:07:35.144Z,19.86
2017-07-08T06:10:07.911Z,20.01
2017-07-08T06:12:40.028Z,20.18
2017-07-08T06:15:12.598Z,20.37
2017-07-08T06:17:45.461Z,20.55
2017-07-08T06:20:18.115Z,20.67
2017-07-08T06:22:50.504Z,20.74
2017-07-08T06:25:22.785Z,20.85
2017-07-08T06:27:56.152Z,21.04
2017-07-08T06:30:28.841Z,21.27
2017-07-08T06:33:01.288Z,21.47
2017-07-08T06:35:33.468Z,21.52
2017-07-08T06:38:05.860Z,21.68
2017-07-08T06:40:38.231Z,22.16
2017-07-08T06:43:10.615Z,22.73
2017-07-08T06:45:42.993Z,22.87
2017-07-08T06:48:15.704Z,23.11
2017-07-08T06:50:47.924Z,23.06
2017-07-08T06:53:20.386Z,23.23
2017-07-08T06:55:52.896Z,23.13
2017-07-08T06:58:25.420Z,22.72
2017-07-08T07:00:57.812Z,22.51
2017-07-08T07:03:30.206Z,22.55
2017-07-08T07:06:02.544Z,22.64
2017-07-08T07:08:35.173Z,22.60
2017-07-08T07:11:07.297Z,22.53
2017-07-08T07:13:39.833Z,22.54
2017-07-08T07:16:12.110Z,22.54
2017-07-08T07:18:44.469Z,22.43
2017-07-08T07:21:16.781Z,22.76
2017-07-08T07:23:49.103Z,23.11
2017-07-08T07:26:21.557Z,23.13
2017-07-08T07:28:53.972Z,23.14
2017-07-08T07:31:26.309Z,23.19
2017-07-08T07:33:58.821Z,23.25
2017-07-08T07:36:31.071Z,23.53
2017-07-08T07:39:03.600Z,23.99
2017-07-08T07:41:35.882Z,24.35
2017-07-08T07:44:08.329Z,24.71
2017-07-08T07:46:40.701Z,25.22
2017-07-08T07:49:13.060Z,25.61
2017-07-08T07:51:45.606Z,25.99
2017-07-08T07:54:17.833Z,26.38
2017-07-08T07:56:50.181Z,26.72
2017-07-08T07:59:23.350Z,27.13
2017-07-08T08:01:56.025Z,28.26
2017-07-08T08:04:28.468Z,28.92
2017-07-08T08:07:00.810Z,29.31
2017-07-08T08:09:33.293Z,29.59
2017-07-08T08:12:05.988Z,30.01
2017-07-08T08:14:38.061Z,31.13
2017-07-08T08:17:10.399Z,31.25
2017-07-08T08:19:42.865Z,30.75
2017-07-08T08:22:15.304Z,30.36
2017-07-08T08:24:47.894Z,29.57
2017-07-08T08:27:20.264Z,29.77
2017-07-08T08:29:52.747Z,30.21
2017-07-08T08:32:25.223Z,31.12
2017-07-08T08:34:57.549Z,31.62
2017-07-08T08:37:30.028Z,32.05
2017-07-08T08:40:02.432Z,32.03
2017-07-08T08:42:34.732Z,31.88
2017-07-08T08:45:07.094Z,32.50
2017-07-08T08:47:39.493Z,33.12
2017-07-08T08:50:12.869Z,33.37
2017-07-08T08:52:46.206Z,33.59
2017-07-08T08:55:18.775Z,34.07
2017-07-08T08:57:51.035Z,33.64
2017-07-08T09:00:24.601Z,32.97
2017-07-08T09:02:56.690Z,33.22
2017-07-08T09:05:29.162Z,33.91
2017-07-08T09:08:01.586Z,33.66
2017-07-08T09:10:34.077Z,33.74
2017-07-08T09:13:06.461Z,33.14
2017-07-08T09:15:38.868Z,32.84
2017-07-08T09:18:21.218Z,32.66
2017-07-08T09:20:53.746Z,32.42
2017-07-08T09:23:26.452Z,32.16
2017-07-08T09:25:58.393Z,31.61
2017-07-08T09:28:30.781Z,31.76
2017-07-08T09:31:03.335Z,31.58
2017-07-08T09:33:35.582Z,31.23
2017-07-08T09:36:07.987Z,31.42
2017-07-08T09:38:40.556Z,30.83
2017-07-08T09:41:13.330Z,30.12
2017-07-08T09:43:45.398Z,31.20
2017-07-08T09:46:17.797Z,32.46
2017-07-08T09:48:51.424Z,33.49
2017-07-08T09:51:24.404Z,33.41
2017-07-08T09:53:56.713Z,34.23
2017-07-08T09:56:36.305Z,34.25
2017-07-08T09:59:08.724Z,34.04
2017-07-08T10:01:41.144Z,34.25
2017-07-08T10:04:13.566Z,34.41
2017-07-08T10:06:45.880Z,33.54
2017-07-08T10:09:18.237Z,33.38
2017-07-08T10:11:51.658Z,33.37
2017-07-08T10:14:24.936Z,33.66
2017-07-08T10:16:57.714Z,34.06
2017-07-08T10:19:30.013Z,33.92
2017-07-08T10:22:02.971Z,33.78
2017-07-08T10:24:34.905Z,34.00
2017-07-08T10:27:07.872Z,34.12
2017-07-08T10:29:41.536Z,33.89
2017-07-08T10:32:15.212Z,33.68
2017-07-08T10:34:47.613Z,32.97
2017-07-08T10:37:19.988Z,32.73
2017-07-08T10:39:52.487Z,32.68
2017-07-08T10:42:25.240Z,32.59
2017-07-08T10:44:57.330Z,32.52
2017-07-08T10:47:29.707Z,32.95
2017-07-08T10:50:02.091Z,33.08
2017-07-08T10:52:34.543Z,32.78
2017-07-08T10:55:06.890Z,33.04
2017-07-08T10:57:39.279Z,33.15
2017-07-08T11:00:11.717Z,33.40
2017-07-08T11:02:44.206Z,33.67
2017-07-08T11:05:16.546Z,33.04
2017-07-08T11:07:48.906Z,32.30
2017-07-08T11:10:21.338Z,31.77
2017-07-08T11:12:54.234Z,31.57
2017-07-08T11:15:26.928Z,31.05
2017-07-08T11:18:00.133Z,30.92
2017-07-08T11:20:32.695Z,30.84
2017-07-08T11:23:05.111Z,30.37
2017-07-08T11:25:37.537Z,30.06
2017-07-08T11:28:10.033Z,29.73
2017-07-08T11:30:42.484Z,29.64
2017-07-08T11:33:14.877Z,29.51
2017-07-08T11:36:02.271Z,29.27
2017-07-08T11:38:34.828Z,29.21
2017-07-08T11:41:08.029Z,29.34
2017-07-08T11:43:41.112Z,29.42
2017-07-08T11:46:14.132Z,29.34
2017-07-08T11:48:46.304Z,29.41
2017-07-08T11:51:18.765Z,29.61
2017-07-08T11:53:51.314Z,29.57
2017-07-08T11:56:23.678Z,29.84
2017-07-08T11:58:55.943Z,30.38
2017-07-08T12:01:28.394Z,31.31
2017-07-08T12:04:00.909Z,32.37
2017-07-08T12:06:33.289Z,33.21
2017-07-08T12:09:05.628Z,33.95
2017-07-08T12:11:38.234Z,34.31
2017-07-08T12:14:10.477Z,34.01
2017-07-08T12:16:42.928Z,33.52
2017-07-08T12:19:15.409Z,33.23
2017-07-08T12:21:47.973Z,33.50
2017-07-08T12:24:20.477Z,33.82
2017-07-08T12:26:52.926Z,33.80
2017-07-08T12:29:25.784Z,33.94
2017-07-08T12:31:58.213Z,34.03
2017-07-08T12:34:31.380Z,33.95
2017-07-08T12:37:03.427Z,33.72
2017-07-08T12:39:35.918Z,33.35
2017-07-08T12:42:08.477Z,32.76
2017-07-08T12:44:40.994Z,32.24
2017-07-08T12:47:13.451Z,31.59
2017-07-08T12:49:45.966Z,31.22
2017-07-08T12:52:18.403Z,31.13
2017-07-08T12:54:50.809Z,30.64
2017-07-08T12:57:23.340Z,30.27
2017-07-08T12:59:55.804Z,30.04
2017-07-08T13:02:28.197Z,29.95
2017-07-08T13:05:00.633Z,29.95
2017-07-08T13:07:33.085Z,30.61
2017-07-08T13:10:05.376Z,31.36
2017-07-08T13:12:38.752Z,31.96
2017-07-08T13:15:12.290Z,31.52
2017-07-08T13:17:44.709Z,31.36
2017-07-08T13:20:17.067Z,31.27
2017-07-08T13:22:49.552Z,31.03
2017-07-08T13:25:21.994Z,30.83
2017-07-08T13:27:54.389Z,30.69
2017-07-08T13:30:26.795Z,30.11
2017-07-08T13:32:59.289Z,29.85
2017-07-08T13:35:31.743Z,29.50
2017-07-08T13:38:04.203Z,29.13
2017-07-08T13:40:36.780Z,28.89
2017-07-08T13:43:09.129Z,28.66
2017-07-08T13:45:41.602Z,28.85
2017-07-08T13:48:14.100Z,29.12
2017-07-08T13:50:46.354Z,29.40
2017-07-08T13:53:18.617Z,29.67
2017-07-08T13:55:51.192Z,30.01
2017-07-08T13:58:23.499Z,30.01
2017-07-08T14:00:55.914Z,30.17
2017-07-08T14:03:28.597Z,30.47
2017-07-08T14:06:01.629Z,30.53
2017-07-08T14:08:34.320Z,30.42
2017-07-08T14:11:06.707Z,30.12
2017-07-08T14:13:39.056Z,30.10
2017-07-08T14:16:11.799Z,30.07
2017-07-08T14:18:44.421Z,30.22
2017-07-08T14:21:16.779Z,30.38
2017-07-08T14:23:49.377Z,30.42
2017-07-08T14:26:21.572Z,30.28
2017-07-08T14:28:54.024Z,29.99
2017-07-08T14:31:26.526Z,29.77
2017-07-08T14:33:58.981Z,29.51
2017-07-08T14:36:31.376Z,29.29
2017-07-08T14:39:03.717Z,29.26
2017-07-08T14:41:36.210Z,29.27
2017-07-08T14:44:08.541Z,29.42
2017-07-08T14:46:40.892Z,29.37
2017-07-08T14:49:13.257Z,29.42
2017-07-08T14:51:45.509Z,29.57
2017-07-08T14:54:17.909Z,29.52
2017-07-08T14:56:50.253Z,29.51
2017-07-08T14:59:22.689Z,29.58
2017-07-08T15:01:55.483Z,29.66
2017-07-08T15:04:27.580Z,29.53
2017-07-08T15:07:00.073Z,29.43
2017-07-08T15:09:32.412Z,29.20
2017-07-08T15:12:04.885Z,29.15
2017-07-08T15:14:37.249Z,29.14
2017-07-08T15:17:09.732Z,29.15
2017-07-08T15:19:42.100Z,29.07
2017-07-08T15:22:14.664Z,28.87
2017-07-08T15:24:46.852Z,28.83
2017-07-08T15:27:19.300Z,28.77
2017-07-08T15:29:51.668Z,28.74
2017-07-08T15:32:25.054Z,28.67
2017-07-08T15:34:57.385Z,28.41
2017-07-08T15:37:30.084Z,28.33
2017-07-08T15:40:02.112Z,28.19
2017-07-08T15:42:34.562Z,28.00
2017-07-08T15:45:07.064Z,27.88
2017-07-08T15:47:39.441Z,27.79
2017-07-08T15:50:12.020Z,27.76
2017-07-08T15:52:44.525Z,27.70
2017-07-08T15:55:17.058Z,27.67
2017-07-08T15:57:49.364Z,27.66
2017-07-08T16:00:21.722Z,27.70
2017-07-08T16:02:54.110Z,27.68
2017-07-08T16:05:26.472Z,27.65
2017-07-08T16:07:59.970Z,27.56
2017-07-08T16:10:33.693Z,27.48
2017-07-08T16:13:05.739Z,27.42
2017-07-08T16:15:38.113Z,27.46
2017-07-08T16:18:10.596Z,27.40
2017-07-08T16:20:42.885Z,27.35
2017-07-08T16:23:16.307Z,27.26
2017-07-08T16:25:48.729Z,27.28
2017-07-08T16:28:21.079Z,27.19
2017-07-08T16:30:53.365Z,27.05
2017-07-08T16:33:25.762Z,26.87
2017-07-08T16:35:58.762Z,26.71
2017-07-08T16:38:31.504Z,26.74
2017-07-08T16:41:03.939Z,26.88
2017-07-08T16:43:36.441Z,26.92
2017-07-08T16:46:08.861Z,26.94
2017-07-08T16:48:41.342Z,26.85
2017-07-08T16:51:14.705Z,26.72
2017-07-08T16:53:47.412Z,26.65
2017-07-08T16:56:19.600Z,26.70
2017-07-08T16:58:51.949Z,26.84
2017-07-08T17:01:24.428Z,26.83
2017-07-08T17:03:56.908Z,26.66
2017-07-08T17:06:29.274Z,26.54
2017-07-08T17:09:01.743Z,26.38
2017-07-08T17:11:34.212Z,26.35
2017-07-08T17:14:06.632Z,26.29
2017-07-08T17:16:38.986Z,26.17
2017-07-08T17:19:11.339Z,26.14
2017-07-08T17:21:43.704Z,26.08
2017-07-08T17:24:16.973Z,26.07
2017-07-08T17:26:49.309Z,26.14
2017-07-08T17:29:22.833Z,26.09
2017-07-08T17:31:55.142Z,26.05
2017-07-08T17:34:27.533Z,25.99
2017-07-08T17:36:59.832Z,25.94
2017-07-08T17:39:32.214Z,25.82
2017-07-08T17:42:04.461Z,25.73
2017-07-08T17:44:36.849Z,25.57
2017-07-08T17:47:09.187Z,25.52
2017-07-08T17:49:41.656Z,25.44
2017-07-08T17:52:13.498Z,25.37
2017-07-08T17:54:46.297Z,25.27
2017-07-08T17:57:18.877Z,25.17
2017-07-08T17:59:50.760Z,25.08
2017-07-08T18:02:23.064Z,25.00
2017-07-08T18:04:55.451Z,24.92
2017-07-08T18:07:27.889Z,24.81
2017-07-08T18:10:01.477Z,24.75
2017-07-08T18:12:33.983Z,24.70
2017-07-08T18:15:07.119Z,24.63
2017-07-08T18:17:39.493Z,24.51
2017-07-08T18:20:11.881Z,24.41
2017-07-08T18:22:44.308Z,24.38
2017-07-08T18:25:16.824Z,24.36
2017-07-08T18:27:49.104Z,24.29
2017-07-08T18:30:22.569Z,24.17
2017-07-08T18:32:55.221Z,24.06
2017-07-08T18:35:29.325Z,24.03
2017-07-08T18:38:09.176Z,23.96
2017-07-08T18:40:41.533Z,23.93
2017-07-08T18:43:13.976Z,23.90
2017-07-08T18:45:46.476Z,23.86
2017-07-08T18:48:19.028Z,23.75
2017-07-08T18:50:54.860Z,23.63
2017-07-08T18:53:27.636Z,23.52
2017-07-08T18:56:00.296Z,23.45
2017-07-08T18:58:32.936Z,23.37
2017-07-08T19:01:05.021Z,23.31
2017-07-08T19:03:37.434Z,23.22
2017-07-08T19:06:10.300Z,23.10
2017-07-08T19:08:42.157Z,23.02
2017-07-08T19:11:14.742Z,22.97
2017-07-08T19:13:47.109Z,22.88
2017-07-08T19:16:19.581Z,22.77
2017-07-08T19:18:51.840Z,22.70
2017-07-08T19:21:24.092Z,22.63
2017-07-08T19:23:56.729Z,22.60
2017-07-08T19:26:30.011Z,22.53
2017-07-08T19:29:02.749Z,22.43
2017-07-08T19:31:35.039Z,22.36
2017-07-08T19:34:07.310Z,22.30
2017-07-08T19:36:39.827Z,22.22
2017-07-08T19:39:12.140Z,22.16
2017-07-08T19:41:44.635Z,22.08
2017-07-08T19:44:17.296Z,21.97
2017-07-08T19:46:49.469Z,21.91
2017-07-08T19:49:21.831Z,21.82
2017-07-08T19:51:55.236Z,21.74
2017-07-08T19:54:27.593Z,21.67
2017-07-08T19:57:00.080Z,21.61
2017-07-08T19:59:32.430Z,21.56
2017-07-08T20:02:04.908Z,21.50
2017-07-08T20:04:37.229Z,21.43
2017-07-08T20:07:09.605Z,21.39
2017-07-08T20:09:42.040Z,21.38
2017-07-08T20:12:14.453Z,21.33
2017-07-08T20:14:46.873Z,21.27
2017-07-08T20:17:19.246Z,21.23
2017-07-08T20:19:51.571Z,21.20
2017-07-08T20:22:23.960Z,21.21
2017-07-08T20:24:56.382Z,21.15
2017-07-08T20:27:29.178Z,21.13
2017-07-08T20:30:01.241Z,21.09
2017-07-08T20:32:40.749Z,21.05
2017-07-08T20:35:13.180Z,21.00
2017-07-08T20:37:45.558Z,20.97
2017-07-08T20:40:17.892Z,20.97
2017-07-08T20:42:50.365Z,20.89
2017-07-08T20:45:22.765Z,20.83
2017-07-08T20:47:55.522Z,20.80
2017-07-08T20:50:27.588Z,20.75
2017-07-08T20:53:00.368Z,20.69
2017-07-08T20:55:32.360Z,20.69
2017-07-08T20:58:04.788Z,20.70
2017-07-08T21:00:37.077Z,20.72
2017-07-08T21:03:09.497Z,20.73
2017-07-08T21:05:42.005Z,20.78
2017-07-08T21:08:15.417Z,20.82
2017-07-08T21:10:47.721Z,20.84
2017-07-08T21:13:20.196Z,20.81
2017-07-08T21:15:52.653Z,20.81
2017-07-08T21:18:25.160Z,20.81
2017-07-08T21:20:57.608Z,20.80
2017-07-08T21:23:29.977Z,20.81
2017-07-08T21:26:02.280Z,20.81
2017-07-08T21:28:34.765Z,20.79
2017-07-08T21:31:07.278Z,20.77
2017-07-08T21:33:39.440Z,20.71
2017-07-08T21:36:11.857Z,20.69
2017-07-08T21:38:44.288Z,20.64
2017-07-08T21:41:16.658Z,20.52
2017-07-08T21:43:49.041Z,20.43
2017-07-08T21:46:21.397Z,20.34
2017-07-08T21:48:53.733Z,20.24
2017-07-08T21:51:26.224Z,20.17
2017-07-08T21:53:58.587Z,20.09
2017-07-08T21:56:30.925Z,20.04
2017-07-08T21:59:03.344Z,19.95
2017-07-08T22:01:36.001Z,19.90
2017-07-08T22:04:08.077Z,19.84
2017-07-08T22:06:40.573Z,19.81
2017-07-08T22:09:12.874Z,19.77
2017-07-08T22:11:45.295Z,19.77
2017-07-08T22:14:17.701Z,19.74
2017-07-08T22:16:50.162Z,19.72
2017-07-08T22:19:22.417Z,19.71
2017-07-08T22:21:54.755Z,19.73
2017-07-08T22:24:27.193Z,19.67
2017-07-08T22:26:59.433Z,19.66
2017-07-08T22:29:31.832Z,19.63
2017-07-08T22:32:04.376Z,19.57
2017-07-08T22:34:36.869Z,19.52
2017-07-08T22:37:09.164Z,19.45
2017-07-08T22:39:41.609Z,19.39
2017-07-08T22:42:13.986Z,19.33
2017-07-08T22:44:46.501Z,19.27
2017-07-08T22:47:18.869Z,19.18
2017-07-08T22:49:51.252Z,19.07
2017-07-08T22:52:24.430Z,19.02
2017-07-08T22:54:57.184Z,18.96
2017-07-08T22:57:29.446Z,18.82
2017-07-08T23:00:01.821Z,18.68
2017-07-08T23:02:34.228Z,18.54
2017-07-08T23:05:06.394Z,18.47
2017-07-08T23:07:38.530Z,18.40
2017-07-08T23:10:10.926Z,18.34
2017-07-08T23:12:44.257Z,18.25
2017-07-08T23:15:16.577Z,18.18
2017-07-08T23:17:49.546Z,18.15
2017-07-08T23:20:21.832Z,18.06
2017-07-08T23:22:53.924Z,18.02
2017-07-08T23:25:26.246Z,17.95
2017-07-08T23:27:58.445Z,17.97
2017-07-08T23:30:30.918Z,17.96
2017-07-08T23:33:03.400Z,17.97
2017-07-08T23:35:35.829Z,17.95
2017-07-08T23:38:08.232Z,17.98
2017-07-08T23:40:40.662Z,17.99
2017-07-08T23:43:13.298Z,17.99
2017-07-08T23:45:46.508Z,18.02
2017-07-08T23:48:18.973Z,17.99
2017-07-08T23:50:51.445Z,17.98
2017-07-08T23:53:23.837Z,17.95
2017-07-08T23:55:56.314Z,17.97
2017-07-08T23:58:28.674Z,17.95
